Time;durP1;ratioP1;P1;durP2;ratioP2;P2;SDS_P1;SDS_P2;PMS_P1;PMS_P2;Temp;Humidity;BMP_temperature;BMP_pressure;BME280_temperature;BME280_humidity;BME280_pressure;Samples;Min_cycle;Max_cycle;Signal;HPM_P1;HPM_P2
2023/03/05 00:01:04;;;;;;;;;;;2.30;99.90;;;;;;4929478;29;19927;-74
2023/03/05 00:03:30;;;;;;;;;;;2.30;99.90;;;;;;4923652;29;20594;-74
2023/03/05 00:05:57;;;;;;;;;;;2.30;99.90;;;;;;4908466;29;19935;-75
2023/03/05 00:08:26;;;;;;;;;;;2.30;99.90;;;;;;4905201;29;19927;-74
2023/03/05 00:10:56;;;;;;;;;;;2.30;99.90;;;;;;4913268;29;19927;-74
2023/03/05 00:13:23;;;;;;;;;;;2.30;99.90;;;;;;4903257;29;19936;-74
2023/03/05 00:15:49;;;;;;;;;;;2.30;99.90;;;;;;4883043;29;19947;-74
2023/03/05 00:18:16;;;;;;;;;;;2.30;99.90;;;;;;4909615;29;20315;-74
2023/03/05 00:20:43;;;;;;;;;;;2.30;99.90;;;;;;4885026;29;20112;-74
2023/03/05 00:23:10;;;;;;;;;;;2.30;99.90;;;;;;4910410;29;19978;-74
2023/03/05 00:25:39;;;;;;;;;;;2.30;99.90;;;;;;4891190;29;20408;-74
2023/03/05 00:28:05;;;;;;;;;;;2.30;99.90;;;;;;4889450;29;19931;-74
2023/03/05 00:30:32;;;;;;;;;;;2.30;99.90;;;;;;4904063;29;20029;-74
2023/03/05 00:32:59;;;;;;;;;;;2.30;99.90;;;;;;4908858;29;21842;-73
2023/03/05 00:35:26;;;;;;;;;;;2.30;99.90;;;;;;4891280;29;19927;-74
2023/03/05 00:37:53;;;;;;;;;;;2.30;99.90;;;;;;4908128;29;19928;-74
2023/03/05 00:40:20;;;;;;;;;;;2.30;99.90;;;;;;4911404;29;19931;-73
2023/03/05 00:42:48;;;;;;;;;;;2.30;99.90;;;;;;4909962;29;20013;-74
2023/03/05 00:45:15;;;;;;;;;;;2.30;99.90;;;;;;4895731;29;19951;-74
2023/03/05 00:47:41;;;;;;;;;;;2.30;99.90;;;;;;4900875;29;19982;-74
2023/03/05 00:50:09;;;;;;;;;;;2.30;99.90;;;;;;4893360;29;20302;-74
2023/03/05 00:52:36;;;;;;;;;;;2.30;99.90;;;;;;4904687;29;19963;-73
2023/03/05 00:55:03;;;;;;;;;;;2.30;99.90;;;;;;4895111;29;20326;-74
2023/03/05 00:57:30;;;;;;;;;;;2.30;99.90;;;;;;4895995;29;19951;-74
2023/03/05 00:59:58;;;;;;;;;;;2.30;99.90;;;;;;4887587;29;19986;-74
2023/03/05 01:02:25;;;;;;;;;;;2.30;99.90;;;;;;4904949;29;19934;-75
2023/03/05 01:04:51;;;;;;;;;;;2.30;99.90;;;;;;4909127;29;20418;-72
2023/03/05 01:07:18;;;;;;;;;;;2.30;99.90;;;;;;4892624;29;20030;-74
2023/03/05 01:09:45;;;;;;;;;;;2.30;99.90;;;;;;4906272;29;19935;-73
2023/03/05 01:12:12;;;;;;;;;;;2.30;99.90;;;;;;4912015;29;19974;-74
2023/03/05 01:14:39;;;;;;;;;;;2.30;99.90;;;;;;4889462;29;20010;-74
2023/03/05 01:17:07;;;;;;;;;;;2.30;99.90;;;;;;4895053;29;19928;-74
2023/03/05 01:19:34;;;;;;;;;;;2.30;99.90;;;;;;4902365;29;19990;-74
2023/03/05 01:22:01;;;;;;;;;;;2.30;99.90;;;;;;4904717;29;20589;-74
2023/03/05 01:24:28;;;;;;;;;;;2.30;99.90;;;;;;4893093;29;19927;-74
2023/03/05 01:26:55;;;;;;;;;;;2.30;99.90;;;;;;4889354;29;19952;-73
2023/03/05 01:29:24;;;;;;;;;;;2.30;99.90;;;;;;4893947;29;20401;-74
2023/03/05 01:31:51;;;;;;;;;;;2.30;99.90;;;;;;4912225;29;19934;-73
2023/03/05 01:34:20;;;;;;;;;;;2.30;99.90;;;;;;4899280;29;19950;-74
2023/03/05 01:36:48;;;;;;;;;;;2.30;99.90;;;;;;4903693;29;20412;-74
2023/03/05 01:39:15;;;;;;;;;;;2.30;99.90;;;;;;4907513;29;20358;-73
2023/03/05 01:41:42;;;;;;;;;;;2.30;99.90;;;;;;4895229;29;20026;-75
2023/03/05 01:44:17;;;;;;;;;;;2.30;99.90;;;;;;4891304;29;19934;-75
2023/03/05 01:46:45;;;;;;;;;;;2.30;99.90;;;;;;4907704;29;20014;-76
2023/03/05 01:49:15;;;;;;;;;;;2.30;99.90;;;;;;4894578;29;19955;-74
2023/03/05 01:51:45;;;;;;;;;;;2.30;99.90;;;;;;4904072;29;19935;-74
2023/03/05 01:54:15;;;;;;;;;;;2.30;99.90;;;;;;4909702;29;19931;-73
2023/03/05 01:56:43;;;;;;;;;;;2.30;99.90;;;;;;4890097;29;20029;-74
2023/03/05 01:59:11;;;;;;;;;;;2.30;99.90;;;;;;4905398;29;20397;-74
2023/03/05 02:01:39;;;;;;;;;;;2.30;99.90;;;;;;4906907;29;19974;-74
2023/03/05 02:04:08;;;;;;;;;;;2.30;99.90;;;;;;4902043;29;20202;-74
2023/03/05 02:06:35;;;;;;;;;;;2.30;99.90;;;;;;4909346;29;19962;-74
2023/03/05 02:09:03;;;;;;;;;;;2.30;99.90;;;;;;4905146;29;20358;-74
2023/03/05 02:11:30;;;;;;;;;;;2.30;99.90;;;;;;4902912;29;20009;-74
2023/03/05 02:13:58;;;;;;;;;;;2.30;99.90;;;;;;4886974;29;19978;-74
2023/03/05 02:16:24;;;;;;;;;;;2.20;99.90;;;;;;4904687;29;21579;-74
2023/03/05 02:18:51;;;;;;;;;;;2.20;99.90;;;;;;4904181;29;19934;-77
2023/03/05 02:21:28;;;;;;;;;;;2.20;99.90;;;;;;4910358;29;20362;-73
2023/03/05 02:23:57;;;;;;;;;;;2.30;99.90;;;;;;4894542;29;20414;-74
2023/03/05 02:26:24;;;;;;;;;;;2.20;99.90;;;;;;4884886;29;20386;-74
2023/03/05 02:28:53;;;;;;;;;;;2.30;99.90;;;;;;4908170;29;20312;-74
2023/03/05 02:31:21;;;;;;;;;;;2.20;99.90;;;;;;4907366;29;19928;-73
2023/03/05 02:33:48;;;;;;;;;;;2.20;99.90;;;;;;4907514;29;19978;-74
2023/03/05 02:36:17;;;;;;;;;;;2.20;99.90;;;;;;4884446;29;20401;-73
2023/03/05 02:38:46;;;;;;;;;;;2.20;99.90;;;;;;4907497;29;19928;-75
2023/03/05 02:41:14;;;;;;;;;;;2.20;99.90;;;;;;4909370;29;19927;-74
2023/03/05 02:43:41;;;;;;;;;;;2.20;99.90;;;;;;4904120;29;20318;-74
2023/03/05 02:46:08;;;;;;;;;;;2.20;99.90;;;;;;4899136;29;20507;-73
2023/03/05 02:48:35;;;;;;;;;;;2.20;99.90;;;;;;4888523;29;20021;-73
2023/03/05 02:51:02;;;;;;;;;;;2.20;99.90;;;;;;4891127;29;19983;-74
2023/03/05 02:53:29;;;;;;;;;;;2.20;99.90;;;;;;4888382;29;19991;-73
2023/03/05 02:55:57;;;;;;;;;;;2.20;99.90;;;;;;4890190;29;19927;-74
2023/03/05 02:58:24;;;;;;;;;;;2.20;99.90;;;;;;4888531;29;20379;-74
2023/03/05 03:00:51;;;;;;;;;;;2.20;99.90;;;;;;4891656;29;19931;-74
2023/03/05 03:03:18;;;;;;;;;;;2.20;99.90;;;;;;4902087;29;19958;-74
2023/03/05 03:05:45;;;;;;;;;;;2.20;99.90;;;;;;4904523;29;20433;-74
2023/03/05 03:08:12;;;;;;;;;;;2.20;99.90;;;;;;4906080;29;20011;-74
2023/03/05 03:10:39;;;;;;;;;;;2.20;99.90;;;;;;4907406;29;19969;-74
2023/03/05 03:13:07;;;;;;;;;;;2.20;99.90;;;;;;4906698;29;21579;-74
2023/03/05 03:15:34;;;;;;;;;;;2.20;99.90;;;;;;4907334;29;20034;-74
2023/03/05 03:18:01;;;;;;;;;;;2.20;99.90;;;;;;4890799;29;19987;-74
2023/03/05 03:20:28;;;;;;;;;;;2.20;99.90;;;;;;4905455;29;19927;-73
2023/03/05 03:22:57;;;;;;;;;;;2.20;99.90;;;;;;4885281;29;19928;-74
2023/03/05 03:25:24;;;;;;;;;;;2.20;99.90;;;;;;4893916;29;19983;-73
2023/03/05 03:27:52;;;;;;;;;;;2.20;99.90;;;;;;4888503;29;19958;-74
2023/03/05 03:30:20;;;;;;;;;;;2.20;99.90;;;;;;4906655;29;19930;-74
2023/03/05 03:32:47;;;;;;;;;;;2.20;99.90;;;;;;4916329;29;19927;-75
2023/03/05 03:35:14;;;;;;;;;;;2.20;99.90;;;;;;4927184;29;19929;-74
2023/03/05 03:37:42;;;;;;;;;;;2.20;99.90;;;;;;4918357;29;20007;-74
2023/03/05 03:40:11;;;;;;;;;;;2.20;99.90;;;;;;4888248;29;19977;-74
2023/03/05 03:42:37;;;;;;;;;;;2.20;99.90;;;;;;4911214;29;20389;-73
2023/03/05 03:45:04;;;;;;;;;;;2.20;99.90;;;;;;4888780;29;20305;-74
2023/03/05 03:47:33;;;;;;;;;;;2.20;99.90;;;;;;4902998;29;20329;-74
2023/03/05 03:49:59;;;;;;;;;;;2.20;99.90;;;;;;4903874;29;19994;-74
2023/03/05 03:52:26;;;;;;;;;;;2.20;99.90;;;;;;4905366;29;20360;-74
2023/03/05 03:55:00;;;;;;;;;;;2.20;99.90;;;;;;4905246;29;20025;-74
2023/03/05 03:57:27;;;;;;;;;;;2.20;99.90;;;;;;4907252;29;19934;-74
2023/03/05 03:59:54;;;;;;;;;;;2.20;99.90;;;;;;4913724;29;19937;-74
2023/03/05 04:02:21;;;;;;;;;;;2.20;99.90;;;;;;4890681;29;19935;-74
2023/03/05 04:04:49;;;;;;;;;;;2.20;99.90;;;;;;4907305;29;20401;-74
2023/03/05 04:07:16;;;;;;;;;;;2.20;99.90;;;;;;4910316;29;19927;-74
2023/03/05 04:09:43;;;;;;;;;;;2.20;99.90;;;;;;4891749;29;20320;-74
2023/03/05 04:12:10;;;;;;;;;;;2.20;99.90;;;;;;4905816;29;20014;-74
2023/03/05 04:14:37;;;;;;;;;;;2.20;99.90;;;;;;4908193;29;20304;-73
2023/03/05 04:17:04;;;;;;;;;;;2.20;99.90;;;;;;4909023;29;19935;-74
2023/03/05 04:19:30;;;;;;;;;;;2.20;99.90;;;;;;4886576;29;19934;-75
2023/03/05 04:21:59;;;;;;;;;;;2.20;99.90;;;;;;4905669;29;19927;-74
2023/03/05 04:24:26;;;;;;;;;;;2.20;99.90;;;;;;4908007;29;19959;-73
2023/03/05 04:26:53;;;;;;;;;;;2.20;99.90;;;;;;4907343;29;20376;-74
2023/03/05 04:29:19;;;;;;;;;;;2.20;99.90;;;;;;4911080;29;20011;-73
2023/03/05 04:31:46;;;;;;;;;;;2.20;99.90;;;;;;4904861;29;20026;-74
2023/03/05 04:34:13;;;;;;;;;;;2.20;99.90;;;;;;4910365;29;20018;-72
2023/03/05 04:36:40;;;;;;;;;;;2.20;99.90;;;;;;4890595;29;19966;-72
2023/03/05 04:39:08;;;;;;;;;;;2.20;99.90;;;;;;4908402;29;19935;-72
2023/03/05 04:41:35;;;;;;;;;;;2.20;99.90;;;;;;4909812;29;20374;-72
2023/03/05 04:44:02;;;;;;;;;;;2.20;99.90;;;;;;4908010;29;19938;-72
2023/03/05 04:46:28;;;;;;;;;;;2.20;99.90;;;;;;4904605;29;22698;-72
2023/03/05 04:48:57;;;;;;;;;;;2.20;99.90;;;;;;4904539;29;20010;-72
2023/03/05 04:51:23;;;;;;;;;;;2.20;99.90;;;;;;4908216;29;20724;-72
2023/03/05 04:53:50;;;;;;;;;;;2.20;99.90;;;;;;4905776;29;19963;-72
2023/03/05 04:56:19;;;;;;;;;;;2.20;99.90;;;;;;4906108;29;19962;-73
2023/03/05 04:58:46;;;;;;;;;;;2.20;99.90;;;;;;4910258;29;19927;-73
2023/03/05 05:01:13;;;;;;;;;;;2.20;99.90;;;;;;4891610;29;20014;-72
2023/03/05 05:03:40;;;;;;;;;;;2.20;99.90;;;;;;4909197;29;19927;-72
2023/03/05 05:06:07;;;;;;;;;;;2.20;99.90;;;;;;4901845;29;19962;-72
2023/03/05 05:08:34;;;;;;;;;;;2.20;99.90;;;;;;4886681;29;19970;-72
2023/03/05 05:11:01;;;;;;;;;;;2.20;99.90;;;;;;4908568;29;20405;-72
2023/03/05 05:13:30;;;;;;;;;;;2.20;99.90;;;;;;4900120;29;19997;-72
2023/03/05 05:15:57;;;;;;;;;;;2.20;99.90;;;;;;4910224;29;19927;-72
2023/03/05 05:18:24;;;;;;;;;;;2.20;99.90;;;;;;4909657;29;19974;-73
2023/03/05 05:20:51;;;;;;;;;;;2.20;99.90;;;;;;4905234;29;19964;-72
2023/03/05 05:23:18;;;;;;;;;;;2.20;99.90;;;;;;4908430;29;19958;-73
2023/03/05 05:25:45;;;;;;;;;;;2.20;99.90;;;;;;4894480;29;19927;-72
2023/03/05 05:28:12;;;;;;;;;;;2.20;99.90;;;;;;4907823;29;20330;-72
2023/03/05 05:30:40;;;;;;;;;;;2.20;99.90;;;;;;4907502;29;20112;-74
2023/03/05 05:33:07;;;;;;;;;;;2.20;99.90;;;;;;4885688;29;19974;-72
2023/03/05 05:35:34;;;;;;;;;;;2.20;99.90;;;;;;4906669;29;19933;-72
2023/03/05 05:38:01;;;;;;;;;;;2.20;99.90;;;;;;4906104;29;20015;-72
2023/03/05 05:40:27;;;;;;;;;;;2.20;99.90;;;;;;4906620;29;19998;-73
2023/03/05 05:42:54;;;;;;;;;;;2.20;99.90;;;;;;4907775;29;19932;-72
2023/03/05 05:45:21;;;;;;;;;;;2.20;99.90;;;;;;4905293;29;20014;-72
2023/03/05 05:50:29;;;;;;;;;;;2.20;99.90;;;;;;5096264;27;20297;-72
2023/03/05 05:52:56;;;;;;;;;;;2.20;99.90;;;;;;5093721;28;19932;-72
2023/03/05 05:55:22;;;;;;;;;;;2.20;99.90;;;;;;5093950;28;21493;-72
2023/03/05 05:57:49;;;;;;;;;;;2.20;99.90;;;;;;5105660;27;20051;-72
2023/03/05 06:00:16;;;;;;;;;;;2.20;99.90;;;;;;5094616;28;19966;-73
2023/03/05 06:02:43;;;;;;;;;;;2.20;99.90;;;;;;5093840;28;19951;-72
2023/03/05 06:05:11;;;;;;;;;;;2.20;99.90;;;;;;5093394;28;19939;-72
2023/03/05 06:07:39;;;;;;;;;;;2.20;99.90;;;;;;5096519;28;19928;-72
2023/03/05 06:10:07;;;;;;;;;;;2.20;99.90;;;;;;5094749;27;19964;-72
2023/03/05 06:12:34;;;;;;;;;;;2.20;99.90;;;;;;5098709;28;19945;-72
2023/03/05 06:15:01;;;;;;;;;;;2.20;99.90;;;;;;5095173;28;19924;-72
2023/03/05 06:17:28;;;;;;;;;;;2.20;99.90;;;;;;5100785;28;20007;-72
2023/03/05 06:19:55;;;;;;;;;;;2.20;99.90;;;;;;5092280;28;19982;-72
2023/03/05 06:22:22;;;;;;;;;;;2.20;99.90;;;;;;5091276;28;19928;-72
2023/03/05 06:24:50;;;;;;;;;;;2.20;99.90;;;;;;5108027;27;19931;-72
2023/03/05 06:27:16;;;;;;;;;;;2.20;99.90;;;;;;5093858;28;19970;-73
2023/03/05 06:29:43;;;;;;;;;;;2.20;99.90;;;;;;5096196;28;20022;-72
2023/03/05 06:32:10;;;;;;;;;;;2.20;99.90;;;;;;5099541;28;19928;-72
2023/03/05 06:34:37;;;;;;;;;;;2.20;99.90;;;;;;5102215;28;20023;-72
2023/03/05 06:37:04;;;;;;;;;;;2.20;99.90;;;;;;5094246;28;20298;-72
2023/03/05 06:39:31;;;;;;;;;;;2.20;99.90;;;;;;5094207;28;20024;-72
2023/03/05 06:41:59;;;;;;;;;;;2.20;99.90;;;;;;5093895;28;19931;-72
2023/03/05 06:44:26;;;;;;;;;;;2.20;99.90;;;;;;5089307;28;20018;-72
2023/03/05 06:46:53;;;;;;;;;;;2.20;99.90;;;;;;5095656;28;19977;-72
2023/03/05 06:49:19;;;;;;;;;;;2.20;99.90;;;;;;5096003;28;19932;-72
2023/03/05 06:51:47;;;;;;;;;;;2.20;99.90;;;;;;5092972;28;19932;-73
2023/03/05 06:54:15;;;;;;;;;;;2.20;99.90;;;;;;5091267;28;19982;-72
2023/03/05 06:56:43;;;;;;;;;;;2.20;99.90;;;;;;5100715;28;19938;-72
2023/03/05 06:59:12;;;;;;;;;;;2.20;99.90;;;;;;5094153;28;20396;-72
2023/03/05 07:01:39;;;;;;;;;;;2.20;99.90;;;;;;5088890;28;19943;-72
2023/03/05 07:04:06;;;;;;;;;;;2.20;99.90;;;;;;5077678;28;19928;-73
2023/03/05 07:06:33;;;;;;;;;;;2.20;99.90;;;;;;5097344;28;19971;-72
2023/03/05 07:09:00;;;;;;;;;;;2.20;99.90;;;;;;5100519;28;19943;-72
2023/03/05 07:11:27;;;;;;;;;;;2.20;99.90;;;;;;5082475;28;19967;-74
2023/03/05 07:13:54;;;;;;;;;;;2.20;99.90;;;;;;5078858;28;19959;-72
2023/03/05 07:16:24;;;;;;;;;;;2.20;99.90;;;;;;5076991;28;20019;-73
2023/03/05 07:18:51;;;;;;;;;;;2.20;99.90;;;;;;5081486;28;19932;-72
2023/03/05 07:21:19;;;;;;;;;;;2.20;99.90;;;;;;5051144;28;20042;-72
2023/03/05 07:23:46;;;;;;;;;;;2.20;99.90;;;;;;5069713;28;20019;-72
2023/03/05 07:26:13;;;;;;;;;;;2.20;99.90;;;;;;5074469;28;20368;-72
2023/03/05 07:28:41;;;;;;;;;;;2.20;99.90;;;;;;5071059;28;19976;-72
2023/03/05 07:31:08;;;;;;;;;;;2.20;99.90;;;;;;5086137;28;19928;-72
2023/03/05 07:33:37;;;;;;;;;;;2.20;99.90;;;;;;5083700;28;20415;-72
2023/03/05 07:36:04;;;;;;;;;;;2.20;99.90;;;;;;5074331;28;20001;-72
2023/03/05 07:38:31;;;;;;;;;;;2.20;99.90;;;;;;5076775;28;20024;-72
2023/03/05 07:41:01;;;;;;;;;;;2.20;99.90;;;;;;5080922;28;19924;-72
2023/03/05 07:43:28;;;;;;;;;;;2.20;99.90;;;;;;5073214;28;19939;-72
2023/03/05 07:45:55;;;;;;;;;;;2.10;99.90;;;;;;5075749;28;20168;-73
2023/03/05 07:48:22;;;;;;;;;;;2.10;99.90;;;;;;5059164;28;19932;-72
2023/03/05 07:50:50;;;;;;;;;;;2.20;99.90;;;;;;5079809;28;20227;-72
2023/03/05 07:53:18;;;;;;;;;;;2.20;99.90;;;;;;5082289;28;20040;-72
2023/03/05 07:55:45;;;;;;;;;;;2.20;99.90;;;;;;5076980;28;19924;-72
2023/03/05 07:58:12;;;;;;;;;;;2.20;99.90;;;;;;5076376;28;19977;-71
2023/03/05 08:00:39;;;;;;;;;;;2.20;99.90;;;;;;5073763;28;19932;-72
2023/03/05 08:03:06;;;;;;;;;;;2.10;99.90;;;;;;5075917;28;19968;-71
2023/03/05 08:05:35;;;;;;;;;;;2.10;99.90;;;;;;5083628;28;19928;-72
2023/03/05 08:08:03;;;;;;;;;;;2.10;99.90;;;;;;5078844;28;19924;-72
2023/03/05 08:10:30;;;;;;;;;;;2.10;99.90;;;;;;5071853;28;20021;-72
2023/03/05 08:12:57;;;;;;;;;;;2.10;99.90;;;;;;5069565;28;19928;-72
2023/03/05 08:15:30;;;;;;;;;;;2.10;99.90;;;;;;5077077;28;19935;-72
2023/03/05 08:17:57;;;;;;;;;;;2.10;99.90;;;;;;5070105;28;19924;-72
2023/03/05 08:20:24;;;;;;;;;;;2.10;99.90;;;;;;5073263;28;19985;-72
2023/03/05 08:22:51;;;;;;;;;;;2.10;99.90;;;;;;5083849;28;20241;-73
2023/03/05 08:25:21;;;;;;;;;;;2.10;99.90;;;;;;5076444;28;20002;-72
2023/03/05 08:27:51;;;;;;;;;;;2.10;99.90;;;;;;5069507;28;19985;-72
2023/03/05 08:30:20;;;;;;;;;;;2.10;99.90;;;;;;5081860;28;20018;-72
2023/03/05 08:32:48;;;;;;;;;;;2.20;99.90;;;;;;5081607;28;19933;-72
2023/03/05 08:35:15;;;;;;;;;;;2.20;99.90;;;;;;5078489;28;19931;-72
2023/03/05 08:37:42;;;;;;;;;;;2.10;99.90;;;;;;5073695;28;19990;-73
2023/03/05 08:40:10;;;;;;;;;;;2.10;99.90;;;;;;5075144;28;20287;-72
2023/03/05 08:42:38;;;;;;;;;;;2.10;99.90;;;;;;5078136;28;20412;-72
2023/03/05 08:45:05;;;;;;;;;;;2.10;99.90;;;;;;5072563;28;19970;-72
2023/03/05 08:47:32;;;;;;;;;;;2.10;99.90;;;;;;5071433;28;20442;-72
2023/03/05 08:49:59;;;;;;;;;;;2.10;99.90;;;;;;5080997;28;19970;-72
2023/03/05 08:52:26;;;;;;;;;;;2.10;99.90;;;;;;5074082;28;19925;-74
2023/03/05 08:54:53;;;;;;;;;;;2.10;99.90;;;;;;5076887;28;20007;-74
2023/03/05 08:57:20;;;;;;;;;;;2.10;99.90;;;;;;5077116;28;20375;-73
2023/03/05 08:59:48;;;;;;;;;;;2.10;99.90;;;;;;5081934;28;19931;-72
2023/03/05 09:02:16;;;;;;;;;;;2.10;99.90;;;;;;5078840;28;19932;-71
2023/03/05 09:04:45;;;;;;;;;;;2.10;99.90;;;;;;5077413;28;20010;-71
2023/03/05 09:07:14;;;;;;;;;;;2.10;99.90;;;;;;5078568;28;20357;-72
2023/03/05 09:09:41;;;;;;;;;;;2.10;99.90;;;;;;5078488;28;20343;-73
2023/03/05 09:12:10;;;;;;;;;;;2.20;99.90;;;;;;5070818;28;19924;-71
2023/03/05 09:14:37;;;;;;;;;;;2.20;99.90;;;;;;5073841;28;19925;-72
2023/03/05 09:17:05;;;;;;;;;;;2.20;99.90;;;;;;5075966;28;19923;-72
2023/03/05 09:19:32;;;;;;;;;;;2.20;99.90;;;;;;5072336;28;20435;-71
2023/03/05 09:21:59;;;;;;;;;;;2.20;99.90;;;;;;5069187;28;19925;-71
2023/03/05 09:24:26;;;;;;;;;;;2.20;99.90;;;;;;5078877;28;19931;-71
2023/03/05 09:26:53;;;;;;;;;;;2.20;99.90;;;;;;5083562;28;19992;-71
2023/03/05 09:29:19;;;;;;;;;;;2.20;99.90;;;;;;5068590;28;20654;-71
2023/03/05 09:31:50;;;;;;;;;;;2.20;99.90;;;;;;5068636;28;20351;-72
2023/03/05 09:34:18;;;;;;;;;;;2.20;99.90;;;;;;5075288;28;19932;-70
2023/03/05 09:36:45;;;;;;;;;;;2.20;99.90;;;;;;5073885;28;19951;-72
2023/03/05 09:39:12;;;;;;;;;;;2.20;99.90;;;;;;5077734;28;19932;-72
2023/03/05 09:41:50;;;;;;;;;;;2.30;99.90;;;;;;5080535;28;20409;-72
2023/03/05 09:44:22;;;;;;;;;;;2.30;99.90;;;;;;5078680;28;19924;-72
2023/03/05 09:46:52;;;;;;;;;;;2.30;99.90;;;;;;5086563;28;20546;-72
2023/03/05 09:49:28;;;;;;;;;;;2.30;99.90;;;;;;5084849;28;19989;-71
2023/03/05 09:52:00;;;;;;;;;;;2.30;99.90;;;;;;5079450;28;19953;-72
2023/03/05 09:54:30;;;;;;;;;;;2.30;99.90;;;;;;5095125;28;19924;-74
2023/03/05 09:57:00;;;;;;;;;;;2.30;99.90;;;;;;5093472;28;19924;-73
2023/03/05 09:59:30;;;;;;;;;;;2.30;99.90;;;;;;5082250;28;19935;-74
2023/03/05 10:01:59;;;;;;;;;;;2.30;99.90;;;;;;5070912;28;20275;-74
2023/03/05 10:04:32;;;;;;;;;;;2.30;99.90;;;;;;5086848;28;20366;-74
2023/03/05 10:07:01;;;;;;;;;;;2.30;99.90;;;;;;5083597;28;20676;-74
2023/03/05 10:09:40;;;;;;;;;;;2.30;99.90;;;;;;5078297;28;20463;-74
2023/03/05 10:12:14;;;;;;;;;;;2.30;99.90;;;;;;5081954;28;20547;-73
2023/03/05 10:14:50;;;;;;;;;;;2.30;99.90;;;;;;5090895;28;19933;-75
2023/03/05 10:17:35;;;;;;;;;;;2.30;99.90;;;;;;5077881;28;19994;-75
2023/03/05 10:20:14;;;;;;;;;;;2.30;99.90;;;;;;5068769;28;19938;-77
2023/03/05 10:22:47;;;;;;;;;;;2.40;99.90;;;;;;5067399;28;20435;-75
2023/03/05 10:25:18;;;;;;;;;;;2.40;99.90;;;;;;5078455;28;20294;-74
2023/03/05 10:27:48;;;;;;;;;;;2.40;99.90;;;;;;5073417;28;20402;-74
2023/03/05 10:30:38;;;;;;;;;;;2.40;99.90;;;;;;5075665;28;19947;-75
2023/03/05 10:33:12;;;;;;;;;;;2.40;99.90;;;;;;5071439;28;19935;-74
2023/03/05 10:35:51;;;;;;;;;;;2.40;99.90;;;;;;5080032;28;20382;-75
2023/03/05 10:38:25;;;;;;;;;;;2.40;99.90;;;;;;5079181;28;20257;-76
2023/03/05 10:40:54;;;;;;;;;;;2.40;99.90;;;;;;5075813;28;19924;-74
2023/03/05 10:43:24;;;;;;;;;;;2.40;99.90;;;;;;5107670;28;19924;-75
2023/03/05 10:45:52;;;;;;;;;;;2.40;99.90;;;;;;5102219;28;19950;-75
2023/03/05 10:48:25;;;;;;;;;;;2.40;99.90;;;;;;5097671;28;20033;-74
2023/03/05 10:50:55;;;;;;;;;;;2.40;99.90;;;;;;5075939;28;20010;-74
2023/03/05 10:53:27;;;;;;;;;;;2.50;99.90;;;;;;5077197;28;19933;-74
2023/03/05 10:55:56;;;;;;;;;;;2.40;99.90;;;;;;5078136;28;19998;-74
2023/03/05 10:58:24;;;;;;;;;;;2.40;99.90;;;;;;5067705;28;20390;-72
2023/03/05 11:01:04;;;;;;;;;;;2.50;99.90;;;;;;5072650;28;20015;-72
2023/03/05 11:03:46;;;;;;;;;;;2.50;99.90;;;;;;5072984;28;19931;-72
2023/03/05 11:06:14;;;;;;;;;;;2.50;99.90;;;;;;5079257;28;20608;-72
2023/03/05 11:08:43;;;;;;;;;;;2.50;99.90;;;;;;5075224;28;19933;-72
2023/03/05 11:11:14;;;;;;;;;;;2.50;99.90;;;;;;5077637;28;19928;-72
2023/03/05 11:13:46;;;;;;;;;;;2.60;99.90;;;;;;5085003;28;19928;-72
2023/03/05 11:16:16;;;;;;;;;;;2.60;99.90;;;;;;5065862;28;21025;-72
2023/03/05 11:18:45;;;;;;;;;;;2.60;99.90;;;;;;5086290;27;20022;-73
2023/03/05 11:21:18;;;;;;;;;;;2.60;99.90;;;;;;5081934;28;19967;-73
2023/03/05 11:24:04;;;;;;;;;;;2.60;99.90;;;;;;5071579;28;20637;-72
2023/03/05 11:26:33;;;;;;;;;;;2.60;99.90;;;;;;5078672;28;21562;-72
2023/03/05 11:29:02;;;;;;;;;;;2.60;99.90;;;;;;5083804;28;19924;-73
2023/03/05 11:31:29;;;;;;;;;;;2.60;99.90;;;;;;5068141;28;19924;-74
2023/03/05 11:33:58;;;;;;;;;;;2.60;99.90;;;;;;5071805;28;20309;-73
2023/03/05 11:36:27;;;;;;;;;;;2.60;99.90;;;;;;5092229;28;19938;-72
2023/03/05 11:38:56;;;;;;;;;;;2.60;99.90;;;;;;5079036;28;19981;-71
2023/03/05 11:41:26;;;;;;;;;;;2.60;99.90;;;;;;5076664;28;19928;-72
2023/03/05 11:43:54;;;;;;;;;;;2.60;99.90;;;;;;5077388;28;19928;-71
2023/03/05 11:46:21;;;;;;;;;;;2.70;99.90;;;;;;5074267;28;19924;-71
2023/03/05 11:48:49;;;;;;;;;;;2.60;99.90;;;;;;5067442;28;20011;-71
2023/03/05 11:51:18;;;;;;;;;;;2.60;99.90;;;;;;5075583;28;20379;-71
2023/03/05 11:53:46;;;;;;;;;;;2.70;99.90;;;;;;5076330;28;19924;-71
2023/03/05 11:56:18;;;;;;;;;;;2.60;99.90;;;;;;5075863;28;19950;-71
2023/03/05 11:58:48;;;;;;;;;;;2.70;99.90;;;;;;5074742;28;20021;-71
2023/03/05 12:01:16;;;;;;;;;;;2.70;99.90;;;;;;5070043;28;19925;-72
2023/03/05 12:03:44;;;;;;;;;;;2.70;99.90;;;;;;5067866;28;19928;-73
2023/03/05 12:06:15;;;;;;;;;;;2.70;99.90;;;;;;5073449;28;19932;-72
2023/03/05 12:08:44;;;;;;;;;;;2.70;99.90;;;;;;5079758;28;19925;-72
2023/03/05 12:11:15;;;;;;;;;;;2.70;99.90;;;;;;5068031;28;19928;-72
2023/03/05 12:13:45;;;;;;;;;;;2.70;99.90;;;;;;5070815;28;19968;-72
2023/03/05 12:16:14;;;;;;;;;;;2.70;99.90;;;;;;5066177;28;20001;-72
2023/03/05 12:18:52;;;;;;;;;;;2.70;99.90;;;;;;5080059;28;20476;-72
2023/03/05 12:21:25;;;;;;;;;;;2.70;99.90;;;;;;5064348;28;19924;-71
2023/03/05 12:23:53;;;;;;;;;;;2.70;99.90;;;;;;5063286;28;20868;-72
2023/03/05 12:26:54;;;;;;;;;;;2.70;99.90;;;;;;5079097;28;19985;-73
2023/03/05 12:29:31;;;;;;;;;;;2.80;99.90;;;;;;5071951;28;19975;-74
2023/03/05 12:31:58;;;;;;;;;;;2.80;99.90;;;;;;5073556;28;19931;-74
2023/03/05 12:34:35;;;;;;;;;;;2.80;99.90;;;;;;5076478;28;20560;-74
2023/03/05 12:37:02;;;;;;;;;;;2.80;99.90;;;;;;5066648;28;19974;-73
2023/03/05 12:39:51;;;;;;;;;;;2.80;99.90;;;;;;5085099;28;19924;-73
2023/03/05 12:42:36;;;;;;;;;;;2.80;99.90;;;;;;5076919;28;19931;-74
2023/03/05 12:45:22;;;;;;;;;;;2.80;99.90;;;;;;5075080;28;20751;-73
2023/03/05 12:48:11;;;;;;;;;;;2.80;99.90;;;;;;5068681;28;19924;-73
2023/03/05 12:50:48;;;;;;;;;;;2.80;99.90;;;;;;5066380;28;19931;-73
2023/03/05 12:53:15;;;;;;;;;;;2.80;99.90;;;;;;5071647;28;20402;-72
2023/03/05 12:55:49;;;;;;;;;;;2.80;99.90;;;;;;5087482;28;19928;-76
2023/03/05 12:58:19;;;;;;;;;;;2.80;99.90;;;;;;5068160;28;19924;-74
2023/03/05 13:00:48;;;;;;;;;;;2.80;99.90;;;;;;5066638;28;20011;-73
2023/03/05 13:03:19;;;;;;;;;;;2.80;99.90;;;;;;5074076;28;20454;-74
2023/03/05 13:05:50;;;;;;;;;;;2.80;99.90;;;;;;5073612;28;19931;-75
2023/03/05 13:08:20;;;;;;;;;;;2.80;99.90;;;;;;5063098;28;19936;-73
2023/03/05 13:10:52;;;;;;;;;;;2.80;99.90;;;;;;5071689;28;19948;-73
2023/03/05 13:13:20;;;;;;;;;;;2.80;99.90;;;;;;5072604;28;20386;-74
2023/03/05 13:15:47;;;;;;;;;;;2.80;99.90;;;;;;5064844;28;19924;-73
2023/03/05 13:18:20;;;;;;;;;;;2.80;99.90;;;;;;5074992;28;19982;-73
2023/03/05 13:20:50;;;;;;;;;;;2.90;99.90;;;;;;5077474;28;19946;-73
2023/03/05 13:23:19;;;;;;;;;;;2.90;99.90;;;;;;5067673;28;20019;-73
2023/03/05 13:25:56;;;;;;;;;;;2.90;99.90;;;;;;5067207;28;19935;-74
2023/03/05 13:28:25;;;;;;;;;;;2.90;99.90;;;;;;5076875;28;20398;-73
2023/03/05 13:30:53;;;;;;;;;;;2.90;99.90;;;;;;5065659;28;19931;-73
2023/03/05 13:33:23;;;;;;;;;;;2.90;99.90;;;;;;5069999;28;19963;-73
2023/03/05 13:35:50;;;;;;;;;;;2.90;99.90;;;;;;5074557;28;19928;-73
2023/03/05 13:38:24;;;;;;;;;;;2.90;99.90;;;;;;5060676;28;19947;-73
2023/03/05 13:41:01;;;;;;;;;;;2.90;99.90;;;;;;5067429;28;20454;-73
2023/03/05 13:43:28;;;;;;;;;;;2.90;99.90;;;;;;5076470;28;20134;-73
2023/03/05 13:45:56;;;;;;;;;;;2.90;99.90;;;;;;5076164;28;19929;-74
2023/03/05 13:48:25;;;;;;;;;;;2.90;99.90;;;;;;5068441;28;20449;-73
2023/03/05 13:50:54;;;;;;;;;;;2.90;99.90;;;;;;5064846;28;19936;-73
2023/03/05 13:53:23;;;;;;;;;;;2.90;99.90;;;;;;5067507;28;19943;-73
2023/03/05 13:55:51;;;;;;;;;;;2.90;99.90;;;;;;5074397;28;19933;-73
2023/03/05 13:58:33;;;;;;;;;;;2.90;99.90;;;;;;5081341;28;20416;-73
2023/03/05 14:01:03;;;;;;;;;;;2.90;99.90;;;;;;5063308;28;19936;-73
2023/03/05 14:03:31;;;;;;;;;;;3.00;99.90;;;;;;5076851;28;19937;-74
2023/03/05 14:05:59;;;;;;;;;;;3.00;99.90;;;;;;5080194;28;20390;-73
2023/03/05 14:08:26;;;;;;;;;;;3.00;99.90;;;;;;5073921;28;19932;-73
2023/03/05 14:10:54;;;;;;;;;;;3.00;99.90;;;;;;5072497;28;19932;-73
2023/03/05 14:13:22;;;;;;;;;;;3.00;99.90;;;;;;5092679;28;19977;-75
2023/03/05 14:16:02;;;;;;;;;;;3.00;99.90;;;;;;5078670;28;20405;-74
2023/03/05 14:18:29;;;;;;;;;;;3.00;99.90;;;;;;5093267;28;19982;-74
2023/03/05 14:21:02;;;;;;;;;;;3.00;99.90;;;;;;5091491;28;19928;-77
2023/03/05 14:23:39;;;;;;;;;;;3.00;99.90;;;;;;5100549;28;19924;-76
2023/03/05 14:26:33;;;;;;;;;;;3.00;99.90;;;;;;5078227;28;20482;-76
2023/03/05 14:29:01;;;;;;;;;;;3.00;99.90;;;;;;5030445;28;20584;-75
2023/03/05 14:31:28;;;;;;;;;;;3.00;99.90;;;;;;5075874;28;20457;-75
2023/03/05 14:34:00;;;;;;;;;;;3.00;99.90;;;;;;5081745;28;19952;-75
2023/03/05 14:36:29;;;;;;;;;;;3.00;99.90;;;;;;5089756;28;19928;-75
2023/03/05 14:38:56;;;;;;;;;;;3.00;99.90;;;;;;5089660;28;19928;-75
2023/03/05 14:41:37;;;;;;;;;;;3.00;99.90;;;;;;5084224;28;20291;-74
2023/03/05 14:44:12;;;;;;;;;;;3.00;99.90;;;;;;5086464;28;19932;-76